createdAt,value
2023-04-19T00:00:50.909Z,15.20
2023-04-19T00:03:19.077Z,15.30
2023-04-19T00:05:47.066Z,15.30
2023-04-19T00:08:14.829Z,15.30
2023-04-19T00:10:42.576Z,15.30
2023-04-19T00:13:10.850Z,15.30
2023-04-19T00:15:38.960Z,15.20
2023-04-19T00:18:06.863Z,15.20
2023-04-19T00:20:34.698Z,15.10
2023-04-19T00:23:02.493Z,15.10
2023-04-19T00:25:32.058Z,15.00
2023-04-19T00:27:59.756Z,15.00
2023-04-19T00:30:27.987Z,15.00
2023-04-19T00:32:55.780Z,14.90
2023-04-19T00:35:25.878Z,15.00
2023-04-19T00:37:53.830Z,15.10
2023-04-19T00:40:21.678Z,15.00
2023-04-19T00:42:49.401Z,15.10
2023-04-19T00:45:17.241Z,15.20
2023-04-19T00:47:45.176Z,15.20
2023-04-19T00:50:13.478Z,15.10
2023-04-19T00:52:41.605Z,15.10
2023-04-19T00:55:09.653Z,15.10
2023-04-19T00:57:38.825Z,15.00
2023-04-19T01:00:09.880Z,15.00
2023-04-19T01:02:37.839Z,15.00
2023-04-19T01:05:05.881Z,14.80
2023-04-19T01:07:35.263Z,14.90
2023-04-19T01:10:03.719Z,15.00
2023-04-19T01:12:31.631Z,15.20
2023-04-19T01:14:59.436Z,15.30
2023-04-19T01:17:28.406Z,15.40
2023-04-19T01:20:08.217Z,15.30
2023-04-19T01:22:38.084Z,15.40
2023-04-19T01:25:07.408Z,15.50
2023-04-19T01:27:35.750Z,15.50
2023-04-19T01:30:03.725Z,15.50
2023-04-19T01:32:31.698Z,15.50
2023-04-19T01:34:59.392Z,15.50
2023-04-19T01:37:27.207Z,15.60
2023-04-19T01:39:54.947Z,15.50
2023-04-19T01:42:23.045Z,15.50
2023-04-19T01:44:50.852Z,15.50
2023-04-19T01:47:18.717Z,15.50
2023-04-19T01:49:46.408Z,15.50
2023-04-19T01:52:14.180Z,15.50
2023-04-19T01:54:42.088Z,15.60
2023-04-19T01:57:09.885Z,15.60
2023-04-19T01:59:37.681Z,15.60
2023-04-19T02:02:08.474Z,15.50
2023-04-19T02:04:36.413Z,15.60
2023-04-19T02:07:06.190Z,15.40
2023-04-19T02:09:38.266Z,15.40
2023-04-19T02:12:06.289Z,15.40
2023-04-19T02:14:34.164Z,15.20
2023-04-19T02:17:01.968Z,15.10
2023-04-19T02:19:29.696Z,15.00
2023-04-19T02:21:57.970Z,14.90
2023-04-19T02:24:25.925Z,14.90
2023-04-19T02:26:53.829Z,14.90
2023-04-19T02:29:21.615Z,14.90
2023-04-19T02:31:49.470Z,14.80
2023-04-19T02:34:17.658Z,14.70
2023-04-19T02:36:45.882Z,14.60
2023-04-19T02:39:13.642Z,14.80
2023-04-19T02:41:41.944Z,14.80
2023-04-19T02:44:09.774Z,14.80
2023-04-19T02:46:37.559Z,14.70
2023-04-19T02:49:05.388Z,14.80
2023-04-19T02:51:33.280Z,14.70
2023-04-19T02:54:01.049Z,14.70
2023-04-19T02:56:29.173Z,14.80
2023-04-19T02:58:57.262Z,14.70
2023-04-19T03:01:25.205Z,14.70
2023-04-19T03:03:53.219Z,14.80
2023-04-19T03:06:21.186Z,14.70
2023-04-19T03:08:49.049Z,14.80
2023-04-19T03:11:19.305Z,14.80
2023-04-19T03:13:47.905Z,14.80
2023-04-19T03:16:16.459Z,14.90
2023-04-19T03:18:47.284Z,14.80
2023-04-19T03:21:17.146Z,14.70
2023-04-19T03:23:52.854Z,14.70
2023-04-19T03:26:20.839Z,14.70
2023-04-19T03:28:52.485Z,14.70
2023-04-19T03:31:23.168Z,14.70
2023-04-19T03:33:52.805Z,14.60
2023-04-19T03:36:24.067Z,14.50
2023-04-19T03:38:52.431Z,14.60
2023-04-19T03:41:27.282Z,14.60
2023-04-19T03:44:06.565Z,14.70
2023-04-19T03:46:34.792Z,14.70
2023-04-19T03:49:03.108Z,14.60
2023-04-19T03:51:31.826Z,14.60
2023-04-19T03:53:59.663Z,14.50
2023-04-19T03:56:29.214Z,14.50
2023-04-19T03:58:57.334Z,14.50
2023-04-19T04:01:25.486Z,14.50
2023-04-19T04:03:54.602Z,14.40
2023-04-19T04:06:22.685Z,14.30
2023-04-19T04:08:50.706Z,14.10
2023-04-19T04:11:18.600Z,14.10
2023-04-19T04:13:50.518Z,14.20
2023-04-19T04:16:23.112Z,14.20
2023-04-19T04:18:53.483Z,14.10
2023-04-19T04:21:24.478Z,14.10
2023-04-19T04:23:53.396Z,14.20
2023-04-19T04:26:39.576Z,14.10
2023-04-19T04:29:27.515Z,14.10
2023-04-19T04:31:57.788Z,14.10
2023-04-19T04:34:30.992Z,14.00
2023-04-19T04:37:07.139Z,13.90
2023-04-19T04:39:39.351Z,13.90
2023-04-19T04:42:09.047Z,13.80
2023-04-19T04:44:37.518Z,13.60
2023-04-19T04:47:05.830Z,13.60
2023-04-19T04:49:39.386Z,13.60
2023-04-19T04:52:08.865Z,13.70
2023-04-19T04:54:44.459Z,13.70
2023-04-19T04:57:21.932Z,13.70
2023-04-19T04:59:49.839Z,13.60
2023-04-19T05:02:19.578Z,13.60
2023-04-19T05:04:47.660Z,13.60
2023-04-19T05:07:15.439Z,13.60
2023-04-19T05:09:43.597Z,13.50
2023-04-19T05:12:13.518Z,13.50
2023-04-19T05:14:41.641Z,13.50
2023-04-19T05:17:09.476Z,13.40
2023-04-19T05:19:37.336Z,13.50
2023-04-19T05:22:07.633Z,13.50
2023-04-19T05:24:35.604Z,13.60
2023-04-19T05:27:03.516Z,13.60
2023-04-19T05:29:32.635Z,13.50
2023-04-19T05:32:00.487Z,13.80
2023-04-19T05:34:36.395Z,13.90
2023-04-19T05:37:06.076Z,14.00
2023-04-19T05:39:34.086Z,14.10
2023-04-19T05:42:02.065Z,14.10
2023-04-19T05:44:29.822Z,14.30
2023-04-19T05:46:57.719Z,14.20
2023-04-19T05:49:51.297Z,14.00
2023-04-19T05:52:41.505Z,14.20
2023-04-19T05:55:10.151Z,14.50
2023-04-19T05:57:42.906Z,14.60
2023-04-19T06:00:11.485Z,14.80
2023-04-19T06:02:47.950Z,14.90
2023-04-19T06:05:16.887Z,14.90
2023-04-19T06:07:54.547Z,15.00
2023-04-19T06:10:24.218Z,15.00
2023-04-19T06:12:52.727Z,15.00
2023-04-19T06:15:21.104Z,14.90
2023-04-19T06:17:49.145Z,15.10
2023-04-19T06:20:17.264Z,15.30
2023-04-19T06:22:46.309Z,15.60
2023-04-19T06:25:14.018Z,15.70
2023-04-19T06:27:41.758Z,15.70
2023-04-19T06:30:10.101Z,15.80
2023-04-19T06:32:38.500Z,16.00
2023-04-19T06:35:07.614Z,16.10
2023-04-19T06:37:35.916Z,16.30
2023-04-19T06:40:08.535Z,16.40
2023-04-19T06:42:37.099Z,16.50
2023-04-19T06:45:06.126Z,16.60
2023-04-19T06:47:35.726Z,16.70
2023-04-19T06:50:04.428Z,16.90
2023-04-19T06:52:32.838Z,16.90
2023-04-19T06:55:01.451Z,17.00
2023-04-19T06:57:29.584Z,17.10
2023-04-19T06:59:58.566Z,17.10
2023-04-19T07:02:26.979Z,17.20
2023-04-19T07:04:55.393Z,17.20
2023-04-19T07:07:23.124Z,17.20
2023-04-19T07:09:50.884Z,17.10
2023-04-19T07:12:19.080Z,17.10
2023-04-19T07:14:46.857Z,17.00
2023-04-19T07:17:14.591Z,17.10
2023-04-19T07:19:42.772Z,17.10
2023-04-19T07:22:10.496Z,17.10
2023-04-19T07:24:40.686Z,17.00
2023-04-19T07:27:09.005Z,17.10
2023-04-19T07:29:37.267Z,17.10
2023-04-19T07:32:05.557Z,17.10
2023-04-19T07:34:33.362Z,17.10
2023-04-19T07:37:02.454Z,17.10
2023-04-19T07:39:31.223Z,17.30
2023-04-19T07:41:59.208Z,17.70
2023-04-19T07:44:26.998Z,17.90
2023-04-19T07:46:54.665Z,18.10
2023-04-19T07:49:22.590Z,18.30
2023-04-19T07:51:50.359Z,18.40
2023-04-19T07:54:20.321Z,18.60
2023-04-19T07:56:48.817Z,18.60
2023-04-19T07:59:16.742Z,18.60
2023-04-19T08:01:44.581Z,18.60
2023-04-19T08:04:12.486Z,18.60
2023-04-19T08:06:40.696Z,18.60
2023-04-19T08:09:08.550Z,18.50
2023-04-19T08:11:36.578Z,18.60
2023-04-19T08:14:11.906Z,18.90
2023-04-19T08:19:16.799Z,18.80
2023-04-19T08:21:44.596Z,18.90
2023-04-19T08:24:12.395Z,18.80
2023-04-19T08:26:40.577Z,18.70
2023-04-19T08:29:08.550Z,18.60
2023-04-19T08:31:36.801Z,18.70
2023-04-19T08:34:04.772Z,18.70
2023-04-19T08:36:39.017Z,19.00
2023-04-19T08:39:24.582Z,19.00
2023-04-19T08:42:10.992Z,19.10
2023-04-19T08:44:54.280Z,19.10
2023-04-19T08:47:34.017Z,19.10
2023-04-19T08:50:17.256Z,19.10
2023-04-19T08:52:58.518Z,19.10
2023-04-19T08:55:29.881Z,19.10
2023-04-19T08:57:58.774Z,19.10
2023-04-19T09:00:26.558Z,19.10
2023-04-19T09:02:58.759Z,19.10
2023-04-19T09:05:26.937Z,19.10
2023-04-19T09:07:54.898Z,19.20
2023-04-19T09:10:22.777Z,19.40
2023-04-19T09:13:04.772Z,19.60
2023-04-19T09:15:38.433Z,19.80
2023-04-19T09:18:10.076Z,19.90
2023-04-19T09:20:44.273Z,19.90
2023-04-19T09:23:14.603Z,19.70
2023-04-19T09:28:27.814Z,20.00
2023-04-19T09:31:05.813Z,20.00
2023-04-19T09:33:41.869Z,19.80
2023-04-19T09:36:09.969Z,19.90
2023-04-19T09:38:50.652Z,20.20
2023-04-19T09:41:18.660Z,20.40
2023-04-19T09:44:05.428Z,20.50
2023-04-19T09:46:37.325Z,20.50
2023-04-19T09:49:23.207Z,20.60
2023-04-19T09:51:56.922Z,20.60
2023-04-19T09:54:28.834Z,20.30
2023-04-19T09:56:58.388Z,20.10
2023-04-19T09:59:27.350Z,20.20
2023-04-19T10:01:56.593Z,20.30
2023-04-19T10:04:37.594Z,20.50
2023-04-19T10:09:49.674Z,20.50
2023-04-19T10:12:46.274Z,20.50
2023-04-19T10:15:12.213Z,20.60
2023-04-19T10:17:40.509Z,20.60
2023-04-19T10:20:13.324Z,20.40
2023-04-19T10:22:41.827Z,20.50
2023-04-19T10:25:11.174Z,20.50
2023-04-19T10:27:40.975Z,20.40
2023-04-19T10:30:21.620Z,20.60
2023-04-19T10:32:56.593Z,20.40
2023-04-19T10:35:35.661Z,20.40
2023-04-19T10:38:16.690Z,20.40
2023-04-19T10:40:57.380Z,20.60
2023-04-19T10:43:27.070Z,20.70
2023-04-19T10:45:55.765Z,20.60
2023-04-19T10:48:35.669Z,20.60
2023-04-19T10:51:14.768Z,20.90
2023-04-19T10:53:46.700Z,21.00
2023-04-19T10:56:18.112Z,21.10
2023-04-19T10:59:11.718Z,21.20
2023-04-19T11:01:45.818Z,21.10
2023-04-19T11:04:22.030Z,21.30
2023-04-19T11:06:52.888Z,21.50
2023-04-19T11:09:26.831Z,21.70
2023-04-19T11:12:07.557Z,21.80
2023-04-19T11:14:37.822Z,21.60
2023-04-19T11:17:19.274Z,21.50
2023-04-19T11:20:10.445Z,21.10
2023-04-19T11:22:40.206Z,21.40
2023-04-19T11:25:11.073Z,21.60
2023-04-19T11:27:40.177Z,22.00
2023-04-19T11:30:12.473Z,22.10
2023-04-19T11:32:52.177Z,21.50
2023-04-19T11:35:24.796Z,21.10
2023-04-19T11:37:53.561Z,20.90
2023-04-19T11:40:26.202Z,21.00
2023-04-19T11:42:57.902Z,21.10
2023-04-19T11:45:34.828Z,21.10
2023-04-19T11:48:07.537Z,21.40
2023-04-19T11:50:41.265Z,21.70
2023-04-19T11:53:16.992Z,22.10
2023-04-19T11:55:52.840Z,22.40
2023-04-19T11:58:36.309Z,22.60
2023-04-19T12:01:13.776Z,21.80
2023-04-19T12:03:46.010Z,21.50
2023-04-19T12:06:33.511Z,21.40
2023-04-19T12:09:07.900Z,21.20
2023-04-19T12:11:46.706Z,21.20
2023-04-19T12:14:16.811Z,21.30
2023-04-19T12:16:47.837Z,21.40
2023-04-19T12:19:22.896Z,22.10
2023-04-19T12:21:50.858Z,22.60
2023-04-19T12:24:18.860Z,22.70
2023-04-19T12:26:57.163Z,22.90
2023-04-19T12:29:25.202Z,23.00
2023-04-19T12:31:53.177Z,23.20
2023-04-19T12:34:21.115Z,23.00
2023-04-19T12:36:48.861Z,23.40
2023-04-19T12:39:16.898Z,23.30
2023-04-19T12:41:44.814Z,22.80
2023-04-19T12:44:12.592Z,22.50
2023-04-19T12:46:40.447Z,22.40
2023-04-19T12:49:08.206Z,22.20
2023-04-19T12:51:36.364Z,22.10
2023-04-19T12:54:04.162Z,22.10
2023-04-19T12:56:31.888Z,22.20
2023-04-19T12:58:59.692Z,22.20
2023-04-19T13:01:27.541Z,22.30
2023-04-19T13:03:58.819Z,22.50
2023-04-19T13:06:27.963Z,22.70
2023-04-19T13:09:00.477Z,22.70
2023-04-19T13:11:29.055Z,22.80
2023-04-19T13:13:56.803Z,22.70
2023-04-19T13:16:24.747Z,22.60
2023-04-19T13:18:54.757Z,22.50
2023-04-19T13:21:24.083Z,22.50
2023-04-19T13:23:51.965Z,22.50
2023-04-19T13:26:20.008Z,22.50
2023-04-19T13:28:47.811Z,22.50
2023-04-19T13:31:15.622Z,22.50
2023-04-19T13:33:43.382Z,22.40
2023-04-19T13:36:11.264Z,22.40
2023-04-19T13:38:39.097Z,22.50
2023-04-19T13:41:07.075Z,22.50
2023-04-19T13:43:34.829Z,22.60
2023-04-19T13:46:02.788Z,22.70
2023-04-19T13:48:30.712Z,23.00
2023-04-19T13:50:59.452Z,23.20
2023-04-19T13:53:29.102Z,23.30
2023-04-19T13:55:57.415Z,23.40
2023-04-19T13:58:25.260Z,23.40
2023-04-19T14:00:54.028Z,23.30
2023-04-19T14:03:23.478Z,23.20
2023-04-19T14:05:51.533Z,22.80
2023-04-19T14:08:19.323Z,22.80
2023-04-19T14:10:47.282Z,22.80
2023-04-19T14:13:15.002Z,22.90
2023-04-19T14:15:42.907Z,23.00
2023-04-19T14:18:10.662Z,23.10
2023-04-19T14:20:38.616Z,23.10
2023-04-19T14:23:06.253Z,23.30
2023-04-19T14:25:34.193Z,23.40
2023-04-19T14:28:01.838Z,23.60
2023-04-19T14:30:31.129Z,24.00
2023-04-19T14:32:59.120Z,24.10
2023-04-19T14:35:27.725Z,24.10
2023-04-19T14:37:55.550Z,23.80
2023-04-19T14:40:23.920Z,23.70
2023-04-19T14:42:51.674Z,23.20
2023-04-19T14:45:19.489Z,22.70
2023-04-19T14:47:47.272Z,22.50
2023-04-19T14:50:15.089Z,22.20
2023-04-19T14:52:42.820Z,22.00
2023-04-19T14:55:11.761Z,21.90
2023-04-19T14:57:39.550Z,21.90
2023-04-19T15:00:08.190Z,22.00
2023-04-19T15:02:36.223Z,22.30
2023-04-19T15:05:04.457Z,22.50
2023-04-19T15:07:32.346Z,22.60
2023-04-19T15:10:00.114Z,22.60
2023-04-19T15:12:27.851Z,22.50
2023-04-19T15:14:55.579Z,22.30
2023-04-19T15:17:23.397Z,22.20
2023-04-19T15:19:51.276Z,22.40
2023-04-19T15:22:19.114Z,22.40
2023-04-19T15:24:47.048Z,22.50
2023-04-19T15:27:14.883Z,22.50
2023-04-19T15:29:42.841Z,22.70
2023-04-19T15:32:10.585Z,22.80
2023-04-19T15:34:38.378Z,23.00
2023-04-19T15:37:06.763Z,22.70
2023-04-19T15:39:34.508Z,22.80
2023-04-19T15:42:03.547Z,22.80
2023-04-19T15:44:31.281Z,22.80
2023-04-19T15:46:59.305Z,22.80
2023-04-19T15:49:27.145Z,22.80
2023-04-19T15:51:54.946Z,22.80
2023-04-19T15:54:23.235Z,22.80
2023-04-19T15:56:51.190Z,22.70
2023-04-19T15:59:19.142Z,22.70
2023-04-19T16:01:46.888Z,22.70
2023-04-19T16:04:15.372Z,22.70
2023-04-19T16:06:43.331Z,22.50
2023-04-19T16:09:11.208Z,22.30
2023-04-19T16:11:39.356Z,21.90
2023-04-19T16:14:07.007Z,21.30
2023-04-19T16:16:34.891Z,21.20
2023-04-19T16:19:03.571Z,21.00
2023-04-19T16:21:38.984Z,20.70
2023-04-19T16:24:07.599Z,20.70
2023-04-19T16:26:35.315Z,20.50
2023-04-19T16:29:03.021Z,20.50
2023-04-19T16:31:30.939Z,20.30
2023-04-19T16:33:58.751Z,20.30
2023-04-19T16:36:27.108Z,20.20
2023-04-19T16:38:54.865Z,20.30
2023-04-19T16:41:22.622Z,20.20
2023-04-19T16:43:50.666Z,20.30
2023-04-19T16:46:18.588Z,20.30
2023-04-19T16:48:46.422Z,20.30
2023-04-19T16:51:14.242Z,20.30
2023-04-19T16:53:42.888Z,20.20
2023-04-19T16:56:10.733Z,20.00
2023-04-19T16:58:38.387Z,20.00
2023-04-19T17:01:06.238Z,20.00
2023-04-19T17:03:35.171Z,20.00
2023-04-19T17:06:03.321Z,19.90
2023-04-19T17:08:31.529Z,19.70
2023-04-19T17:10:59.460Z,19.50
2023-04-19T17:13:27.142Z,19.50
2023-04-19T17:15:54.983Z,19.40
2023-04-19T17:18:22.905Z,19.40
2023-04-19T17:20:50.652Z,19.30
2023-04-19T17:23:18.487Z,19.20
2023-04-19T17:25:57.799Z,19.20
2023-04-19T17:28:26.078Z,19.20
2023-04-19T17:30:54.363Z,19.10
2023-04-19T17:33:22.571Z,18.80
2023-04-19T17:35:51.430Z,18.70
2023-04-19T17:38:19.223Z,18.30
2023-04-19T17:40:47.125Z,18.00
2023-04-19T17:43:15.288Z,17.70
2023-04-19T17:45:42.960Z,17.40
2023-04-19T17:48:10.812Z,17.40
2023-04-19T17:50:38.591Z,17.20
2023-04-19T17:53:06.569Z,16.90
2023-04-19T17:55:34.640Z,16.80
2023-04-19T17:58:02.413Z,16.70
2023-04-19T18:00:30.273Z,16.60
2023-04-19T18:02:58.402Z,16.30
2023-04-19T18:05:26.351Z,16.20
2023-04-19T18:07:54.161Z,16.20
2023-04-19T18:10:21.998Z,16.30
2023-04-19T18:12:49.864Z,16.30
2023-04-19T18:15:17.659Z,16.20
2023-04-19T18:17:45.411Z,16.30
2023-04-19T18:20:13.902Z,16.30
2023-04-19T18:22:42.059Z,16.20
2023-04-19T18:25:10.270Z,16.10
2023-04-19T18:27:37.979Z,16.10
2023-04-19T18:30:06.984Z,16.00
2023-04-19T18:32:35.694Z,16.00
2023-04-19T18:35:04.630Z,15.90
2023-04-19T18:37:32.388Z,15.60
2023-04-19T18:40:00.277Z,15.70
2023-04-19T18:42:28.127Z,15.60
2023-04-19T18:44:55.951Z,15.50
2023-04-19T18:47:26.569Z,15.50
2023-04-19T18:50:04.325Z,15.40
2023-04-19T18:52:33.597Z,15.40
2023-04-19T18:55:01.415Z,15.30
2023-04-19T18:57:30.609Z,15.40
2023-04-19T19:00:02.350Z,15.70
2023-04-19T19:02:30.910Z,16.00
2023-04-19T19:05:02.110Z,16.00
2023-04-19T19:10:04.059Z,15.90
2023-04-19T19:12:43.079Z,15.80
2023-04-19T19:15:10.942Z,15.80
2023-04-19T19:17:38.877Z,15.90
2023-04-19T19:20:07.714Z,16.00
2023-04-19T19:22:35.981Z,16.00
2023-04-19T19:25:04.346Z,15.90
2023-04-19T19:27:32.331Z,16.00
2023-04-19T19:30:01.080Z,16.00
2023-04-19T19:32:30.187Z,16.00
2023-04-19T19:35:03.034Z,15.80
2023-04-19T19:37:33.181Z,15.70
2023-04-19T19:40:04.612Z,15.60
2023-04-19T19:42:35.205Z,15.60
2023-04-19T19:45:04.269Z,15.60
2023-04-19T19:47:36.031Z,15.60
2023-04-19T19:52:37.903Z,15.40
2023-04-19T19:55:08.449Z,15.40
2023-04-19T20:00:36.615Z,15.50
2023-04-19T20:03:01.618Z,15.50
2023-04-19T20:05:30.304Z,15.50
2023-04-19T20:08:10.654Z,15.70
2023-04-19T20:10:42.361Z,15.70
2023-04-19T20:13:13.107Z,15.60
2023-04-19T20:15:42.172Z,15.60
2023-04-19T20:18:09.954Z,15.40
2023-04-19T20:20:38.033Z,15.40
2023-04-19T20:23:07.093Z,15.40
2023-04-19T20:25:36.460Z,15.30
2023-04-19T20:28:07.259Z,15.50
2023-04-19T20:30:36.354Z,15.60
2023-04-19T20:33:04.835Z,15.60
2023-04-19T20:35:36.670Z,15.60
2023-04-19T20:38:04.587Z,15.50
2023-04-19T20:40:33.231Z,15.40
2023-04-19T20:43:01.589Z,15.40
2023-04-19T20:45:29.988Z,15.40
2023-04-19T20:47:59.333Z,15.30
2023-04-19T20:50:27.343Z,15.30
2023-04-19T20:52:55.429Z,15.30
2023-04-19T20:55:23.587Z,15.30
2023-04-19T20:57:51.401Z,15.20
2023-04-19T21:00:19.459Z,15.20
2023-04-19T21:02:47.622Z,15.30
2023-04-19T21:05:15.561Z,15.40
2023-04-19T21:07:43.225Z,15.30
2023-04-19T21:10:12.013Z,15.40
2023-04-19T21:12:39.768Z,15.50
2023-04-19T21:15:08.010Z,15.50
2023-04-19T21:17:36.242Z,15.30
2023-04-19T21:20:11.029Z,15.40
2023-04-19T21:22:44.195Z,15.50
2023-04-19T21:25:12.943Z,15.40
2023-04-19T21:27:42.199Z,15.30
2023-04-19T21:30:11.383Z,15.30
2023-04-19T21:32:39.223Z,15.30
2023-04-19T21:37:56.344Z,15.50
2023-04-19T21:40:24.208Z,15.50
2023-04-19T21:42:52.072Z,15.50
2023-04-19T21:45:19.811Z,15.50
2023-04-19T21:47:47.538Z,15.40
2023-04-19T21:50:15.287Z,15.40
2023-04-19T21:52:42.912Z,15.30
2023-04-19T21:55:10.670Z,15.20
2023-04-19T21:57:38.674Z,15.20
2023-04-19T22:00:09.697Z,15.10
2023-04-19T22:02:37.566Z,15.20
2023-04-19T22:05:07.412Z,15.10
2023-04-19T22:07:38.311Z,15.20
2023-04-19T22:10:07.272Z,15.10
2023-04-19T22:12:38.771Z,14.90
2023-04-19T22:15:10.880Z,15.00
2023-04-19T22:17:40.568Z,15.10
2023-04-19T22:20:13.087Z,15.10
2023-04-19T22:22:40.860Z,15.10
2023-04-19T22:25:09.128Z,15.00
2023-04-19T22:27:36.971Z,15.00
2023-04-19T22:30:05.393Z,15.00
2023-04-19T22:32:33.133Z,14.90
2023-04-19T22:35:00.920Z,14.80
2023-04-19T22:37:28.681Z,14.80
2023-04-19T22:39:56.397Z,15.00
2023-04-19T22:42:24.069Z,14.90
2023-04-19T22:44:51.807Z,15.00
2023-04-19T22:47:19.466Z,14.90
2023-04-19T22:49:47.459Z,15.00
2023-04-19T22:52:15.894Z,15.10
2023-04-19T22:54:43.522Z,15.10
2023-04-19T22:57:12.132Z,15.10
2023-04-19T22:59:39.797Z,15.10
2023-04-19T23:02:07.658Z,15.00
2023-04-19T23:04:35.849Z,15.10
2023-04-19T23:07:04.257Z,15.10
2023-04-19T23:09:32.338Z,15.00
2023-04-19T23:12:00.821Z,15.00
2023-04-19T23:14:29.326Z,14.90
2023-04-19T23:16:57.879Z,14.80
2023-04-19T23:19:26.519Z,14.70
2023-04-19T23:21:54.222Z,14.70
2023-04-19T23:24:21.959Z,14.80
2023-04-19T23:26:49.738Z,14.80
2023-04-19T23:29:17.605Z,14.80
2023-04-19T23:31:45.550Z,14.90
2023-04-19T23:34:14.181Z,14.90
2023-04-19T23:36:41.894Z,14.90
2023-04-19T23:39:10.004Z,14.80
2023-04-19T23:41:37.791Z,14.80
2023-04-19T23:44:05.741Z,14.80
2023-04-19T23:46:33.444Z,14.70
2023-04-19T23:49:01.207Z,14.70
2023-04-19T23:51:29.048Z,14.70
2023-04-19T23:53:56.735Z,14.70
2023-04-19T23:56:24.377Z,14.40
2023-04-19T23:58:52.077Z,14.40
